createdAt,value
2022-12-22T00:00:29.983Z,15.43
2022-12-22T00:03:17.373Z,15.57
2022-12-22T00:06:03.474Z,15.47
2022-12-22T00:08:49.204Z,11.90
2022-12-22T00:11:34.960Z,13.67
2022-12-22T00:14:20.801Z,18.70
2022-12-22T00:17:06.624Z,14.17
2022-12-22T00:19:53.968Z,8.53
2022-12-22T00:22:40.797Z,13.00
2022-12-22T00:25:27.529Z,20.23
2022-12-22T00:28:13.583Z,3.33
2022-12-22T00:30:59.362Z,10.87
2022-12-22T00:33:45.287Z,7.93
2022-12-22T00:36:33.026Z,12.70
2022-12-22T00:39:18.794Z,4.80
2022-12-22T00:42:04.635Z,12.67
2022-12-22T00:44:50.511Z,13.43
2022-12-22T00:47:42.323Z,27.07
2022-12-22T00:50:28.855Z,14.40
2022-12-22T00:53:16.912Z,9.40
2022-12-22T00:56:02.802Z,6.77
2022-12-22T00:58:48.615Z,28.20
2022-12-22T01:01:34.904Z,11.87
2022-12-22T01:04:20.879Z,12.83
2022-12-22T01:07:06.593Z,25.17
2022-12-22T01:09:54.614Z,4.63
2022-12-22T01:12:41.833Z,6.83
2022-12-22T01:15:29.486Z,17.30
2022-12-22T01:18:15.413Z,14.30
2022-12-22T01:21:01.276Z,14.83
2022-12-22T01:23:47.539Z,31.33
2022-12-22T01:26:35.088Z,23.30
2022-12-22T01:29:20.820Z,7.23
2022-12-22T01:32:06.749Z,6.07
2022-12-22T01:34:52.688Z,10.20
2022-12-22T01:37:38.650Z,33.03
2022-12-22T01:40:25.804Z,12.57
2022-12-22T01:43:13.343Z,38.47
2022-12-22T01:45:59.450Z,6.60
2022-12-22T01:48:46.650Z,23.40
2022-12-22T01:51:34.409Z,36.23
2022-12-22T01:54:20.041Z,48.23
2022-12-22T01:57:07.334Z,5.50
2022-12-22T01:59:54.857Z,25.57
2022-12-22T02:02:41.249Z,14.43
2022-12-22T02:05:28.743Z,4.53
2022-12-22T02:08:24.741Z,24.10
2022-12-22T02:11:31.495Z,7.20
2022-12-22T02:14:29.657Z,4.00
2022-12-22T02:17:22.345Z,6.97
2022-12-22T02:20:38.645Z,5.70
2022-12-22T02:23:29.435Z,9.20
2022-12-22T02:26:18.376Z,10.13
2022-12-22T02:29:07.099Z,4.00
2022-12-22T02:31:57.142Z,10.10
2022-12-22T02:34:42.872Z,2.50
2022-12-22T02:37:32.521Z,8.27
2022-12-22T02:40:21.961Z,3.67
2022-12-22T02:43:14.255Z,8.30
2022-12-22T02:46:05.572Z,8.90
2022-12-22T02:48:53.802Z,0.50
2022-12-22T02:51:42.093Z,11.73
2022-12-22T02:54:28.386Z,10.60
2022-12-22T02:57:14.661Z,5.47
2022-12-22T03:00:00.581Z,11.70
2022-12-22T03:02:48.109Z,4.77
2022-12-22T03:05:33.978Z,4.63
2022-12-22T03:08:19.936Z,12.93
2022-12-22T03:11:05.678Z,29.07
2022-12-22T03:13:51.550Z,28.00
2022-12-22T03:16:37.313Z,31.70
2022-12-22T03:19:24.846Z,68.83
2022-12-22T03:22:10.600Z,19.00
2022-12-22T03:24:56.565Z,12.37
2022-12-22T03:27:24.965Z,2.57
2022-12-22T03:29:53.273Z,5.07
2022-12-22T03:32:21.612Z,1.33
2022-12-22T03:34:51.331Z,2.13
2022-12-22T03:37:19.672Z,2.30
2022-12-22T03:39:48.498Z,11.77
2022-12-22T03:42:34.406Z,3.80
2022-12-22T03:45:16.646Z,2.13
2022-12-22T03:47:45.008Z,8.47
2022-12-22T03:50:14.916Z,5.53
2022-12-22T03:52:43.317Z,6.23
2022-12-22T03:55:11.676Z,2.40
2022-12-22T03:57:40.013Z,3.63
2022-12-22T04:00:09.050Z,0.60
2022-12-22T04:02:37.490Z,8.77
2022-12-22T04:05:06.199Z,4.93
2022-12-22T04:07:36.119Z,2.60
2022-12-22T04:10:22.220Z,1.33
2022-12-22T04:12:55.937Z,0.70
2022-12-22T04:15:24.838Z,5.80
2022-12-22T04:17:53.187Z,5.43
2022-12-22T04:20:22.086Z,3.30
2022-12-22T04:22:51.806Z,8.20
2022-12-22T04:25:20.285Z,1.60
2022-12-22T04:27:48.670Z,0.90
2022-12-22T04:30:17.451Z,2.30
2022-12-22T04:32:45.968Z,0.50
2022-12-22T04:35:14.314Z,18.90
2022-12-22T04:37:42.701Z,0.60
2022-12-22T04:40:12.627Z,9.30
2022-12-22T04:42:40.996Z,5.00
2022-12-22T04:45:09.855Z,2.90
2022-12-22T04:47:38.207Z,0.60
2022-12-22T04:50:07.076Z,20.27
2022-12-22T04:52:35.434Z,2.63
2022-12-22T04:55:04.123Z,6.37
2022-12-22T04:57:40.082Z,3.60
2022-12-22T05:00:10.014Z,4.77
2022-12-22T05:02:38.659Z,8.13
2022-12-22T05:05:07.480Z,3.93
2022-12-22T05:07:35.861Z,2.60
2022-12-22T05:10:04.376Z,6.93
2022-12-22T05:12:51.375Z,0.80
2022-12-22T05:15:19.820Z,1.33
2022-12-22T05:17:48.267Z,2.33
2022-12-22T05:20:16.645Z,0.60
2022-12-22T05:22:45.015Z,12.33
2022-12-22T05:25:16.584Z,5.00
2022-12-22T05:27:46.791Z,0.60
2022-12-22T05:30:15.878Z,1.33
2022-12-22T05:32:44.260Z,4.13
2022-12-22T05:35:12.610Z,0.50
2022-12-22T05:37:40.927Z,0.60
2022-12-22T05:40:09.958Z,0.80
2022-12-22T05:42:38.331Z,0.80
2022-12-22T05:45:13.412Z,1.53
2022-12-22T05:47:41.804Z,4.40
2022-12-22T05:50:10.804Z,2.07
2022-12-22T05:52:39.180Z,2.20
2022-12-22T05:55:08.054Z,1.00
2022-12-22T05:57:36.775Z,2.20
2022-12-22T06:00:05.570Z,2.10
2022-12-22T06:02:35.595Z,2.70
2022-12-22T06:05:05.048Z,2.03
2022-12-22T06:07:33.619Z,3.07
2022-12-22T06:10:07.801Z,3.10
2022-12-22T06:12:39.995Z,4.43
2022-12-22T06:15:09.588Z,17.03
2022-12-22T06:17:44.848Z,4.13
2022-12-22T06:20:15.070Z,1.70
2022-12-22T06:22:44.288Z,14.23
2022-12-22T06:25:18.131Z,10.37
2022-12-22T06:27:47.493Z,18.27
2022-12-22T06:30:16.697Z,4.50
2022-12-22T06:32:46.476Z,5.37
2022-12-22T06:35:15.252Z,1.80
2022-12-22T06:37:44.184Z,1.50
2022-12-22T06:40:13.001Z,5.10
2022-12-22T06:43:05.725Z,2.23
2022-12-22T06:45:37.109Z,3.50
2022-12-22T06:48:07.468Z,0.83
2022-12-22T06:50:36.085Z,1.90
2022-12-22T06:53:04.736Z,2.17
2022-12-22T06:55:33.287Z,2.13
2022-12-22T06:58:02.096Z,2.17
2022-12-22T07:00:30.488Z,1.30
2022-12-22T07:02:59.086Z,2.10
2022-12-22T07:05:30.450Z,1.07
2022-12-22T07:08:05.730Z,0.87
2022-12-22T07:10:54.216Z,8.53
2022-12-22T07:13:24.192Z,1.37
2022-12-22T07:16:00.161Z,0.70
2022-12-22T07:18:29.801Z,1.20
2022-12-22T07:20:59.555Z,4.23
2022-12-22T07:23:27.993Z,1.10
2022-12-22T07:25:56.317Z,1.00
2022-12-22T07:28:24.738Z,3.63
2022-12-22T07:30:53.443Z,8.40
2022-12-22T07:33:21.891Z,6.67
2022-12-22T07:35:50.261Z,10.70
2022-12-22T07:38:20.785Z,4.90
2022-12-22T07:40:52.092Z,2.03
2022-12-22T07:43:20.256Z,1.40
2022-12-22T07:45:48.743Z,0.60
2022-12-22T07:48:34.626Z,1.00
2022-12-22T07:51:05.306Z,3.50
2022-12-22T07:53:35.420Z,1.17
2022-12-22T07:56:05.276Z,1.00
2022-12-22T07:58:33.652Z,0.60
2022-12-22T08:01:03.048Z,2.00
2022-12-22T08:03:31.418Z,0.70
2022-12-22T08:05:59.758Z,2.03
2022-12-22T08:08:28.116Z,1.57
2022-12-22T08:10:57.853Z,1.57
2022-12-22T08:13:26.345Z,1.47
2022-12-22T08:15:54.837Z,4.07
2022-12-22T08:18:23.161Z,5.97
2022-12-22T08:20:51.772Z,2.90
2022-12-22T08:23:20.205Z,0.90
2022-12-22T08:25:50.683Z,0.80
2022-12-22T08:28:20.589Z,4.70
2022-12-22T08:30:50.019Z,0.63
2022-12-22T08:33:18.571Z,0.70
2022-12-22T08:35:47.062Z,0.60
2022-12-22T08:38:16.067Z,32.17
2022-12-22T08:40:45.421Z,0.60
2022-12-22T08:43:14.793Z,0.60
2022-12-22T08:45:44.825Z,0.83
2022-12-22T08:48:13.201Z,0.60
2022-12-22T08:50:41.621Z,0.83
2022-12-22T08:53:23.649Z,0.60
2022-12-22T08:55:58.954Z,0.60
2022-12-22T08:58:27.297Z,0.90
2022-12-22T09:01:00.149Z,0.67
2022-12-22T09:03:28.735Z,0.60
2022-12-22T09:06:02.372Z,3.30
2022-12-22T09:08:30.860Z,1.23
2022-12-22T09:11:04.334Z,0.80
2022-12-22T09:13:32.714Z,1.90
2022-12-22T09:16:06.831Z,2.00
2022-12-22T09:18:36.008Z,3.77
2022-12-22T09:21:05.157Z,0.80
2022-12-22T09:23:41.055Z,0.67
2022-12-22T09:26:10.329Z,0.97
2022-12-22T09:28:40.105Z,2.30
2022-12-22T09:31:12.334Z,1.27
2022-12-22T09:33:40.894Z,5.07
2022-12-22T09:36:11.050Z,0.60
2022-12-22T09:38:40.454Z,1.80
2022-12-22T09:41:09.847Z,3.50
2022-12-22T09:43:39.388Z,1.13
2022-12-22T09:46:08.566Z,1.97
2022-12-22T09:48:41.371Z,1.27
2022-12-22T09:51:13.626Z,1.17
2022-12-22T09:53:42.725Z,0.60
2022-12-22T09:56:13.208Z,1.80
2022-12-22T09:58:41.804Z,7.73
2022-12-22T10:01:16.912Z,3.73
2022-12-22T10:03:48.431Z,3.07
2022-12-22T10:06:19.279Z,0.60
2022-12-22T10:08:47.632Z,3.43
2022-12-22T10:11:17.531Z,0.67
2022-12-22T10:13:46.439Z,1.83
2022-12-22T10:16:18.921Z,5.57
2022-12-22T10:18:58.115Z,4.60
2022-12-22T10:21:26.888Z,0.97
2022-12-22T10:23:55.463Z,4.83
2022-12-22T10:26:30.671Z,6.60
2022-12-22T10:29:01.195Z,5.43
2022-12-22T10:31:31.252Z,4.00
2022-12-22T10:34:15.978Z,4.23
2022-12-22T10:36:48.748Z,1.27
2022-12-22T10:39:22.050Z,2.27
2022-12-22T10:41:51.599Z,1.57
2022-12-22T10:44:21.701Z,2.07
2022-12-22T10:46:50.987Z,1.50
2022-12-22T10:49:22.358Z,2.77
2022-12-22T10:51:52.167Z,4.20
2022-12-22T10:54:28.095Z,2.77
2022-12-22T10:57:22.496Z,2.00
2022-12-22T10:59:52.126Z,3.57
2022-12-22T11:02:28.393Z,10.43
2022-12-22T11:05:03.179Z,1.57
2022-12-22T11:07:32.542Z,5.70
2022-12-22T11:10:00.899Z,5.63
2022-12-22T11:12:37.288Z,1.57
2022-12-22T11:15:09.007Z,1.57
2022-12-22T11:17:41.257Z,3.33
2022-12-22T11:20:26.856Z,1.13
2022-12-22T11:22:59.480Z,1.47
2022-12-22T11:25:34.609Z,3.30
2022-12-22T11:28:12.893Z,4.03
2022-12-22T11:30:46.883Z,1.63
2022-12-22T11:33:20.655Z,1.43
2022-12-22T11:35:59.830Z,1.27
2022-12-22T11:38:35.003Z,3.20
2022-12-22T11:41:09.460Z,9.20
2022-12-22T11:43:44.302Z,1.87
2022-12-22T11:46:17.111Z,8.80
2022-12-22T11:49:07.213Z,3.50
2022-12-22T11:51:53.493Z,1.87
2022-12-22T11:54:46.057Z,2.97
2022-12-22T11:57:20.981Z,4.60
2022-12-22T11:59:52.574Z,3.10
2022-12-22T12:02:45.171Z,2.97
2022-12-22T12:05:19.772Z,3.40
2022-12-22T12:07:52.342Z,2.20
2022-12-22T12:10:25.593Z,2.77
2022-12-22T12:12:57.535Z,4.27
2022-12-22T12:15:32.611Z,3.50
2022-12-22T12:18:14.196Z,1.90
2022-12-22T12:20:50.050Z,2.67
2022-12-22T12:23:24.467Z,2.30
2022-12-22T12:25:56.919Z,8.10
2022-12-22T12:28:34.425Z,7.17
2022-12-22T12:31:05.610Z,2.73
2022-12-22T12:33:38.193Z,5.03
2022-12-22T12:36:10.314Z,3.00
2022-12-22T12:39:11.376Z,8.40
2022-12-22T12:41:34.496Z,10.07
2022-12-22T12:44:03.199Z,8.63
2022-12-22T12:46:56.858Z,7.10
2022-12-22T12:49:44.413Z,8.63
2022-12-22T12:52:14.095Z,5.60
2022-12-22T12:54:42.756Z,4.87
2022-12-22T12:57:24.662Z,4.60
2022-12-22T12:59:53.985Z,8.97
2022-12-22T13:02:37.986Z,6.17
2022-12-22T13:05:27.301Z,12.33
2022-12-22T13:08:08.942Z,14.13
2022-12-22T13:10:38.277Z,11.73
2022-12-22T13:13:06.791Z,7.63
2022-12-22T13:15:36.113Z,3.17
2022-12-22T13:18:11.109Z,16.33
2022-12-22T13:20:39.960Z,5.40
2022-12-22T13:23:15.793Z,12.90
2022-12-22T13:25:53.205Z,9.17
2022-12-22T13:28:23.388Z,17.97
2022-12-22T13:30:55.054Z,11.87
2022-12-22T13:33:26.798Z,6.67
2022-12-22T13:35:59.443Z,12.87
2022-12-22T13:38:31.191Z,4.63
2022-12-22T13:41:01.844Z,21.90
2022-12-22T13:43:31.678Z,15.97
2022-12-22T13:46:01.499Z,5.70
2022-12-22T13:48:43.332Z,11.83
2022-12-22T13:51:16.288Z,6.83
2022-12-22T13:54:07.936Z,5.07
2022-12-22T13:56:37.858Z,10.00
2022-12-22T13:59:06.489Z,15.20
2022-12-22T14:01:36.142Z,6.00
2022-12-22T14:04:07.939Z,9.67
2022-12-22T14:06:37.942Z,14.10
2022-12-22T14:09:16.963Z,11.40
2022-12-22T14:11:54.359Z,13.20
2022-12-22T14:14:28.149Z,10.33
2022-12-22T14:16:58.341Z,16.63
2022-12-22T14:19:33.171Z,14.17
2022-12-22T14:22:07.152Z,21.53
2022-12-22T14:24:38.556Z,15.43
2022-12-22T14:27:09.675Z,16.37
2022-12-22T14:29:38.332Z,16.47
2022-12-22T14:32:08.018Z,20.80
2022-12-22T14:34:38.074Z,18.30
2022-12-22T14:37:11.806Z,6.23
2022-12-22T14:39:40.404Z,13.77
2022-12-22T14:42:14.965Z,14.70
2022-12-22T14:44:45.384Z,18.30
2022-12-22T14:47:17.651Z,20.30
2022-12-22T14:49:49.174Z,9.80
2022-12-22T14:52:21.016Z,14.63
2022-12-22T14:54:50.164Z,17.97
2022-12-22T14:57:21.907Z,20.83
2022-12-22T15:00:00.127Z,22.63
2022-12-22T15:02:36.673Z,19.80
2022-12-22T15:05:15.743Z,14.50
2022-12-22T15:10:40.178Z,16.83
2022-12-22T15:13:12.091Z,25.27
2022-12-22T15:15:40.584Z,20.23
2022-12-22T15:18:13.815Z,22.57
2022-12-22T15:20:43.685Z,15.27
2022-12-22T15:23:13.512Z,15.40
2022-12-22T15:25:41.864Z,25.93
2022-12-22T15:28:12.799Z,28.37
2022-12-22T15:30:41.494Z,32.17
2022-12-22T15:33:12.340Z,30.40
2022-12-22T15:35:41.664Z,27.60
2022-12-22T15:38:14.031Z,32.30
2022-12-22T15:40:42.812Z,29.87
2022-12-22T15:43:28.951Z,31.43
2022-12-22T15:46:00.530Z,29.47
2022-12-22T15:48:30.600Z,32.07
2022-12-22T15:50:59.387Z,26.97
2022-12-22T15:53:29.231Z,31.77
2022-12-22T15:55:58.742Z,6.77
2022-12-22T15:58:29.103Z,25.33
2022-12-22T16:00:57.632Z,31.27
2022-12-22T16:03:26.351Z,33.30
2022-12-22T16:05:55.009Z,36.60
2022-12-22T16:08:26.189Z,35.20
2022-12-22T16:10:56.024Z,33.40
2022-12-22T16:13:27.209Z,32.03
2022-12-22T16:15:57.808Z,18.70
2022-12-22T16:21:10.103Z,37.87
2022-12-22T16:23:39.915Z,52.03
2022-12-22T16:26:10.459Z,41.17
2022-12-22T16:28:38.947Z,42.57
2022-12-22T16:31:13.131Z,41.80
2022-12-22T16:33:43.152Z,48.03
2022-12-22T16:36:11.871Z,40.20
2022-12-22T16:38:41.374Z,35.00
2022-12-22T16:41:18.393Z,36.07
2022-12-22T16:46:33.317Z,4.67
2022-12-22T16:49:02.837Z,15.63
2022-12-22T16:51:33.776Z,17.37
2022-12-22T16:54:02.444Z,42.43
2022-12-22T16:56:33.081Z,20.67
2022-12-22T16:59:04.512Z,21.13
2022-12-22T17:01:36.237Z,22.00
2022-12-22T17:04:06.528Z,11.73
2022-12-22T17:06:35.060Z,15.80
2022-12-22T17:09:03.885Z,9.37
2022-12-22T17:11:34.520Z,16.73
2022-12-22T17:14:05.377Z,16.97
2022-12-22T17:16:33.939Z,15.10
2022-12-22T17:19:02.420Z,14.33
2022-12-22T17:21:30.993Z,17.47
2022-12-22T17:24:04.096Z,2.90
2022-12-22T17:26:35.271Z,14.93
2022-12-22T17:29:03.948Z,5.40
2022-12-22T17:31:32.347Z,18.70
2022-12-22T17:34:00.800Z,2.40
2022-12-22T17:36:32.397Z,11.10
2022-12-22T17:39:01.188Z,10.00
2022-12-22T17:41:29.669Z,19.47
2022-12-22T17:43:59.390Z,38.87
2022-12-22T17:46:27.843Z,32.97
2022-12-22T17:48:56.259Z,37.40
2022-12-22T17:51:25.466Z,44.23
2022-12-22T17:53:54.468Z,29.83
2022-12-22T17:56:23.869Z,6.57
2022-12-22T17:58:52.543Z,19.17
2022-12-22T18:01:26.988Z,20.73
2022-12-22T18:03:55.694Z,30.87
2022-12-22T18:06:25.799Z,26.50
2022-12-22T18:08:55.051Z,30.67
2022-12-22T18:11:23.815Z,61.87
2022-12-22T18:13:54.321Z,41.47
2022-12-22T18:16:23.300Z,26.97
2022-12-22T18:18:53.414Z,58.47
2022-12-22T18:21:22.794Z,59.03
2022-12-22T18:23:51.583Z,39.70
2022-12-22T18:26:21.899Z,35.03
2022-12-22T18:28:50.669Z,45.00
2022-12-22T18:31:19.402Z,45.37
2022-12-22T18:33:47.774Z,56.53
2022-12-22T18:36:26.137Z,47.03
2022-12-22T18:38:57.233Z,40.67
2022-12-22T18:41:26.894Z,69.67
2022-12-22T18:43:55.333Z,55.47
2022-12-22T18:46:23.769Z,42.87
2022-12-22T18:48:52.266Z,61.43
2022-12-22T18:51:21.729Z,47.27
2022-12-22T18:53:51.752Z,63.03
2022-12-22T18:56:20.144Z,64.90
2022-12-22T18:58:48.587Z,45.67
2022-12-22T19:01:21.537Z,59.67
2022-12-22T19:03:50.491Z,70.00
2022-12-22T19:06:20.934Z,51.77
2022-12-22T19:08:50.704Z,60.97
2022-12-22T19:11:20.835Z,60.20
2022-12-22T19:13:51.174Z,25.97
2022-12-22T19:16:20.931Z,44.03
2022-12-22T19:18:49.307Z,48.53
2022-12-22T19:21:18.323Z,4.47
2022-12-22T19:23:47.212Z,50.87
2022-12-22T19:26:22.720Z,53.67
2022-12-22T19:28:52.956Z,3.80
2022-12-22T19:31:23.673Z,3.53
2022-12-22T19:33:52.704Z,38.23
2022-12-22T19:36:25.440Z,12.03
2022-12-22T19:39:02.786Z,3.37
2022-12-22T19:41:36.775Z,0.60
2022-12-22T19:44:05.424Z,10.17
2022-12-22T19:46:35.022Z,23.07
2022-12-22T19:49:03.435Z,26.97
2022-12-22T19:51:32.452Z,34.80
2022-12-22T19:54:00.807Z,34.63
2022-12-22T19:56:30.907Z,22.77
2022-12-22T19:59:01.702Z,30.43
2022-12-22T20:01:30.176Z,31.13
2022-12-22T20:03:58.626Z,33.87
2022-12-22T20:06:27.025Z,28.13
2022-12-22T20:09:01.610Z,23.67
2022-12-22T20:11:29.932Z,19.33
2022-12-22T20:13:58.245Z,22.47
2022-12-22T20:16:27.948Z,22.23
2022-12-22T20:18:59.572Z,24.73
2022-12-22T20:21:29.704Z,27.43
2022-12-22T20:24:00.139Z,25.20
2022-12-22T20:26:28.952Z,23.47
2022-12-22T20:28:57.284Z,9.03
2022-12-22T20:31:26.910Z,4.03
2022-12-22T20:33:56.701Z,2.07
2022-12-22T20:36:26.365Z,4.80
2022-12-22T20:38:55.205Z,14.80
2022-12-22T20:41:23.670Z,4.03
2022-12-22T20:43:52.351Z,12.50
2022-12-22T20:46:23.030Z,9.03
2022-12-22T20:48:51.990Z,3.93
2022-12-22T20:51:22.408Z,6.13
2022-12-22T20:53:51.310Z,10.70
2022-12-22T20:56:21.282Z,1.70
2022-12-22T20:58:49.644Z,3.50
2022-12-22T21:01:18.349Z,2.87
2022-12-22T21:03:46.817Z,3.03
2022-12-22T21:06:25.147Z,14.33
2022-12-22T21:08:53.937Z,14.93
2022-12-22T21:11:22.507Z,6.13
2022-12-22T21:13:50.934Z,0.63
2022-12-22T21:16:20.711Z,14.10
2022-12-22T21:18:49.117Z,8.23
2022-12-22T21:21:17.474Z,8.73
2022-12-22T21:23:47.210Z,0.50
2022-12-22T21:26:20.045Z,9.17
2022-12-22T21:28:48.438Z,0.50
2022-12-22T21:31:16.891Z,1.63
2022-12-22T21:33:45.506Z,1.33
2022-12-22T21:36:19.450Z,5.30
2022-12-22T21:38:49.243Z,4.30
2022-12-22T21:41:17.604Z,3.30
2022-12-22T21:43:46.013Z,3.60
2022-12-22T21:46:14.532Z,4.80
2022-12-22T21:48:42.854Z,6.30
2022-12-22T21:51:13.555Z,0.60
2022-12-22T21:53:41.896Z,1.83
2022-12-22T21:56:17.937Z,2.93
2022-12-22T21:58:46.327Z,0.80
2022-12-22T22:01:15.350Z,4.87
2022-12-22T22:03:43.823Z,3.10
2022-12-22T22:06:12.281Z,11.30
2022-12-22T22:08:41.075Z,2.83
2022-12-22T22:11:17.526Z,3.93
2022-12-22T22:13:47.182Z,1.07
2022-12-22T22:16:15.691Z,4.43
2022-12-22T22:18:44.461Z,1.97
2022-12-22T22:21:13.566Z,4.30
2022-12-22T22:23:42.164Z,1.30
2022-12-22T22:26:10.572Z,3.60
2022-12-22T22:28:39.033Z,2.53
2022-12-22T22:31:11.906Z,6.03
2022-12-22T22:33:40.391Z,4.10
2022-12-22T22:36:09.031Z,2.53
2022-12-22T22:38:37.694Z,0.90
2022-12-22T22:41:06.223Z,0.50
2022-12-22T22:43:34.538Z,2.27
2022-12-22T22:46:02.953Z,3.93
2022-12-22T22:48:32.764Z,1.00
2022-12-22T22:51:01.107Z,0.83
2022-12-22T22:53:30.729Z,3.70
2022-12-22T22:56:02.871Z,3.17
2022-12-22T22:58:31.295Z,1.00
2022-12-22T23:01:05.217Z,1.83
2022-12-22T23:03:35.091Z,3.40
2022-12-22T23:06:03.806Z,3.20
2022-12-22T23:08:33.343Z,1.20
2022-12-22T23:11:01.758Z,3.23
2022-12-22T23:13:30.509Z,0.63
2022-12-22T23:15:59.710Z,2.03
2022-12-22T23:18:28.666Z,1.20
2022-12-22T23:20:59.894Z,2.77
2022-12-22T23:23:28.717Z,2.23
2022-12-22T23:25:57.406Z,4.17
2022-12-22T23:28:25.770Z,1.20
2022-12-22T23:30:54.543Z,1.37
2022-12-22T23:33:22.916Z,2.10
2022-12-22T23:35:51.861Z,9.10
2022-12-22T23:38:22.016Z,4.97
2022-12-22T23:40:53.033Z,1.37
2022-12-22T23:43:22.729Z,2.00
2022-12-22T23:45:51.075Z,5.30
2022-12-22T23:48:19.405Z,10.93
2022-12-22T23:50:47.918Z,4.40
2022-12-22T23:53:16.370Z,6.87
2022-12-22T23:55:46.284Z,3.23
2022-12-22T23:58:15.135Z,7.10
